createdAt,value
2023-01-28T00:00:50.957Z,-0.91
2023-01-28T00:03:17.616Z,-0.85
2023-01-28T00:05:44.535Z,-0.95
2023-01-28T00:08:11.665Z,-0.98
2023-01-28T00:10:41.851Z,-1.02
2023-01-28T00:13:12.370Z,-1.04
2023-01-28T00:15:38.996Z,-0.86
2023-01-28T00:18:05.629Z,-0.77
2023-01-28T00:20:32.299Z,-0.89
2023-01-28T00:22:58.939Z,-0.96
2023-01-28T00:25:25.492Z,-1.01
2023-01-28T00:27:52.194Z,-1.07
2023-01-28T00:30:19.499Z,-1.06
2023-01-28T00:32:46.095Z,-1.06
2023-01-28T00:35:13.606Z,-1.06
2023-01-28T00:37:40.400Z,-1.05
2023-01-28T00:40:09.912Z,-1.06
2023-01-28T00:42:37.485Z,-1.05
2023-01-28T00:45:04.432Z,-1.02
2023-01-28T00:47:34.215Z,-1.02
2023-01-28T00:50:04.340Z,-0.98
2023-01-28T00:52:31.477Z,-0.97
2023-01-28T00:54:58.111Z,-0.95
2023-01-28T00:57:24.732Z,-0.95
2023-01-28T00:59:51.305Z,-1.01
2023-01-28T01:02:18.061Z,-1.06
2023-01-28T01:04:54.968Z,-1.11
2023-01-28T01:07:34.910Z,-1.14
2023-01-28T01:10:02.632Z,-1.17
2023-01-28T01:12:29.784Z,-1.20
2023-01-28T01:14:57.353Z,-1.14
2023-01-28T01:17:24.077Z,-1.19
2023-01-28T01:19:50.703Z,-1.19
2023-01-28T01:22:17.317Z,-1.16
2023-01-28T01:24:43.938Z,-1.14
2023-01-28T01:27:10.514Z,-1.09
2023-01-28T01:29:37.102Z,-1.06
2023-01-28T01:32:03.951Z,-1.07
2023-01-28T01:34:30.561Z,-1.04
2023-01-28T01:36:58.210Z,-1.01
2023-01-28T01:39:24.905Z,-0.96
2023-01-28T01:41:51.497Z,-0.99
2023-01-28T01:44:48.523Z,-1.00
2023-01-28T01:47:18.154Z,-1.02
2023-01-28T01:49:45.091Z,-1.03
2023-01-28T01:52:16.334Z,-1.01
2023-01-28T01:54:47.294Z,-0.98
2023-01-28T01:57:19.581Z,-1.01
2023-01-28T01:59:46.397Z,-0.99
2023-01-28T02:02:13.652Z,-0.98
2023-01-28T02:04:44.743Z,-0.95
2023-01-28T02:07:14.703Z,-0.95
2023-01-28T02:09:41.767Z,-0.94
2023-01-28T02:12:13.860Z,-0.96
2023-01-28T02:15:00.176Z,-0.96
2023-01-28T02:17:27.309Z,-0.95
2023-01-28T02:20:00.659Z,-0.94
2023-01-28T02:22:42.563Z,-0.95
2023-01-28T02:25:39.695Z,-0.94
2023-01-28T02:28:22.603Z,-0.96
2023-01-28T02:31:00.731Z,-0.96
2023-01-28T02:33:31.301Z,-0.97
2023-01-28T02:36:09.880Z,-0.92
2023-01-28T02:38:45.969Z,-0.91
2023-01-28T02:41:21.416Z,-0.90
2023-01-28T02:43:48.050Z,-0.88
2023-01-28T02:46:50.398Z,-0.90
2023-01-28T02:49:23.756Z,-0.94
2023-01-28T02:52:45.540Z,-0.98
2023-01-28T02:55:27.400Z,-1.03
2023-01-28T02:58:09.292Z,-0.93
2023-01-28T03:00:56.439Z,-0.92
2023-01-28T03:03:28.429Z,-0.94
2023-01-28T03:06:06.725Z,-0.94
2023-01-28T03:08:51.365Z,-0.94
2023-01-28T03:11:33.410Z,-0.95
2023-01-28T03:14:15.473Z,-0.99
2023-01-28T03:16:58.009Z,-1.03
2023-01-28T03:19:39.811Z,-0.98
2023-01-28T03:22:21.829Z,-1.05
2023-01-28T03:25:07.512Z,-1.01
2023-01-28T03:28:08.467Z,-1.05
2023-01-28T03:30:58.826Z,-1.02
2023-01-28T03:33:41.525Z,-1.00
2023-01-28T03:36:24.374Z,-1.07
2023-01-28T03:38:50.934Z,-0.98
2023-01-28T03:41:26.394Z,-0.95
2023-01-28T03:43:53.676Z,-0.99
2023-01-28T03:46:20.540Z,-1.01
2023-01-28T03:48:47.193Z,-0.98
2023-01-28T03:51:13.788Z,-0.96
2023-01-28T03:53:41.112Z,-0.93
2023-01-28T03:56:08.883Z,-1.07
2023-01-28T03:58:50.655Z,-1.07
2023-01-28T04:01:17.203Z,-1.03
2023-01-28T04:03:43.781Z,-1.08
2023-01-28T04:06:10.676Z,-1.09
2023-01-28T04:08:37.266Z,-1.04
2023-01-28T04:11:19.475Z,-0.98
2023-01-28T04:13:48.937Z,-0.94
2023-01-28T04:16:17.606Z,-0.84
2023-01-28T04:18:45.245Z,-0.85
2023-01-28T04:21:12.748Z,-0.85
2023-01-28T04:23:39.357Z,-0.99
2023-01-28T04:26:05.973Z,-1.07
2023-01-28T04:28:32.603Z,-1.11
2023-01-28T04:30:59.250Z,-1.15
2023-01-28T04:33:25.833Z,-1.15
2023-01-28T04:35:52.386Z,-1.14
2023-01-28T04:38:18.942Z,-1.16
2023-01-28T04:40:48.995Z,-1.15
2023-01-28T04:43:15.644Z,-1.14
2023-01-28T04:45:42.234Z,-1.14
2023-01-28T04:48:12.430Z,-1.14
2023-01-28T04:50:42.600Z,-1.16
2023-01-28T04:53:10.089Z,-1.17
2023-01-28T04:55:37.033Z,-1.16
2023-01-28T04:58:03.861Z,-1.16
2023-01-28T05:00:30.820Z,-1.14
2023-01-28T05:02:57.431Z,-1.15
2023-01-28T05:05:24.027Z,-1.16
2023-01-28T05:07:52.441Z,-1.20
2023-01-28T05:10:20.375Z,-1.18
2023-01-28T05:12:48.153Z,-1.14
2023-01-28T05:15:17.295Z,-1.15
2023-01-28T05:17:44.872Z,-1.16
2023-01-28T05:20:14.452Z,-1.12
2023-01-28T05:22:42.418Z,-1.13
2023-01-28T05:25:09.741Z,-1.12
2023-01-28T05:27:36.519Z,-1.22
2023-01-28T05:30:03.718Z,-1.22
2023-01-28T05:32:30.467Z,-1.18
2023-01-28T05:34:57.094Z,-1.18
2023-01-28T05:37:23.712Z,-1.20
2023-01-28T05:39:50.272Z,-1.26
2023-01-28T05:42:18.648Z,-1.29
2023-01-28T05:44:45.228Z,-1.25
2023-01-28T05:47:11.827Z,-1.24
2023-01-28T05:49:38.436Z,-1.22
2023-01-28T05:52:05.024Z,-1.23
2023-01-28T05:54:31.590Z,-1.26
2023-01-28T05:56:58.175Z,-1.22
2023-01-28T05:59:24.750Z,-1.22
2023-01-28T06:01:51.279Z,-1.26
2023-01-28T06:04:20.190Z,-1.28
2023-01-28T06:06:47.673Z,-1.24
2023-01-28T06:09:14.466Z,-1.24
2023-01-28T06:11:41.170Z,-1.26
2023-01-28T06:14:07.740Z,-1.24
2023-01-28T06:16:35.079Z,-1.24
2023-01-28T06:19:01.869Z,-1.25
2023-01-28T06:21:30.134Z,-1.23
2023-01-28T06:23:56.986Z,-1.24
2023-01-28T06:26:23.583Z,-1.23
2023-01-28T06:28:50.449Z,-1.19
2023-01-28T06:31:17.008Z,-1.23
2023-01-28T06:33:43.613Z,-1.19
2023-01-28T06:36:10.473Z,-1.17
2023-01-28T06:38:37.086Z,-1.13
2023-01-28T06:41:03.772Z,-1.14
2023-01-28T06:43:30.861Z,-1.12
2023-01-28T06:45:58.852Z,-1.11
2023-01-28T06:48:26.996Z,-1.10
2023-01-28T06:50:53.851Z,-0.98
2023-01-28T06:53:21.205Z,-0.97
2023-01-28T06:55:47.914Z,-0.99
2023-01-28T06:58:14.539Z,-1.10
2023-01-28T07:00:41.227Z,-1.11
2023-01-28T07:03:07.986Z,-1.14
2023-01-28T07:05:34.635Z,-1.15
2023-01-28T07:08:02.288Z,-1.23
2023-01-28T07:10:29.661Z,-1.23
2023-01-28T07:12:56.355Z,-1.25
2023-01-28T07:15:22.930Z,-1.29
2023-01-28T07:17:49.536Z,-1.22
2023-01-28T07:20:17.467Z,-1.28
2023-01-28T07:22:45.476Z,-1.20
2023-01-28T07:25:13.628Z,-1.26
2023-01-28T07:27:40.330Z,-1.05
2023-01-28T07:30:07.485Z,-1.07
2023-01-28T07:32:34.087Z,-1.25
2023-01-28T07:35:00.669Z,-1.24
2023-01-28T07:37:27.374Z,-1.27
2023-01-28T07:39:53.982Z,-1.02
2023-01-28T07:42:20.630Z,-1.08
2023-01-28T07:44:47.231Z,-1.12
2023-01-28T07:47:13.956Z,-1.18
2023-01-28T07:49:40.639Z,-1.07
2023-01-28T07:52:08.479Z,-1.14
2023-01-28T07:54:35.263Z,-1.10
2023-01-28T07:57:01.882Z,-0.96
2023-01-28T07:59:28.521Z,-1.03
2023-01-28T08:01:55.293Z,-0.99
2023-01-28T08:04:22.046Z,-1.11
2023-01-28T08:06:48.741Z,-1.10
2023-01-28T08:09:15.323Z,-1.19
2023-01-28T08:11:42.457Z,-1.08
2023-01-28T08:14:10.982Z,-1.13
2023-01-28T08:16:37.569Z,-1.10
2023-01-28T08:19:04.128Z,-1.07
2023-01-28T08:21:30.721Z,-1.14
2023-01-28T08:23:57.343Z,-1.16
2023-01-28T08:26:23.922Z,-1.15
2023-01-28T08:28:51.588Z,-0.97
2023-01-28T08:31:18.710Z,-0.98
2023-01-28T08:33:45.433Z,-0.98
2023-01-28T08:36:12.162Z,-0.90
2023-01-28T08:38:38.759Z,-1.00
2023-01-28T08:41:05.335Z,-0.97
2023-01-28T08:43:31.916Z,-0.94
2023-01-28T08:45:58.660Z,-0.95
2023-01-28T08:48:25.375Z,-1.01
2023-01-28T08:50:58.788Z,-1.07
2023-01-28T08:53:25.377Z,-1.18
2023-01-28T08:55:51.969Z,-1.18
2023-01-28T08:58:18.928Z,-1.08
2023-01-28T09:00:46.318Z,-1.14
2023-01-28T09:03:12.955Z,-1.08
2023-01-28T09:05:39.771Z,-1.15
2023-01-28T09:08:10.102Z,-1.11
2023-01-28T09:10:38.483Z,-1.15
2023-01-28T09:13:07.429Z,-1.13
2023-01-28T09:15:34.884Z,-1.06
2023-01-28T09:18:01.566Z,-1.11
2023-01-28T09:20:28.385Z,-1.22
2023-01-28T09:22:55.074Z,-1.33
2023-01-28T09:25:21.918Z,-1.36
2023-01-28T09:27:48.607Z,-1.31
2023-01-28T09:30:15.704Z,-1.33
2023-01-28T09:32:42.556Z,-1.26
2023-01-28T09:35:09.413Z,-1.26
2023-01-28T09:37:36.090Z,-1.21
2023-01-28T09:40:03.593Z,-1.28
2023-01-28T09:42:44.809Z,-1.19
2023-01-28T09:45:27.557Z,-1.27
2023-01-28T09:47:57.023Z,-1.19
2023-01-28T09:50:33.226Z,-1.15
2023-01-28T09:53:10.683Z,-0.95
2023-01-28T09:55:44.450Z,-1.00
2023-01-28T09:58:15.103Z,-1.12
2023-01-28T10:01:02.869Z,-1.19
2023-01-28T10:03:57.741Z,-1.15
2023-01-28T10:06:34.042Z,-1.05
2023-01-28T10:09:14.444Z,-1.04
2023-01-28T10:12:11.510Z,-1.14
2023-01-28T10:15:05.429Z,-1.15
2023-01-28T10:17:39.652Z,-1.05
2023-01-28T10:20:18.274Z,-1.05
2023-01-28T10:23:03.298Z,-1.16
2023-01-28T10:25:32.366Z,-1.19
2023-01-28T10:28:01.300Z,-1.14
2023-01-28T10:30:31.745Z,-1.14
2023-01-28T10:33:05.171Z,-1.05
2023-01-28T10:35:37.999Z,-1.07
2023-01-28T10:38:08.413Z,-1.07
2023-01-28T10:40:35.838Z,-1.10
2023-01-28T10:43:02.854Z,-1.08
2023-01-28T10:45:36.129Z,-1.02
2023-01-28T10:48:14.473Z,-1.10
2023-01-28T10:50:51.686Z,-1.09
2023-01-28T10:53:20.042Z,-1.09
2023-01-28T10:55:55.716Z,-1.14
2023-01-28T10:58:29.055Z,-1.12
2023-01-28T11:01:00.087Z,-1.13
2023-01-28T11:03:27.581Z,-1.05
2023-01-28T11:05:56.848Z,-1.05
2023-01-28T11:08:25.709Z,-1.07
2023-01-28T11:10:53.763Z,-1.08
2023-01-28T11:13:23.335Z,-1.14
2023-01-28T11:15:53.848Z,-1.16
2023-01-28T11:18:24.837Z,-1.12
2023-01-28T11:20:56.845Z,-1.22
2023-01-28T11:23:28.444Z,-1.13
2023-01-28T11:26:04.907Z,-1.13
2023-01-28T11:28:31.988Z,-1.14
2023-01-28T11:31:01.690Z,-1.11
2023-01-28T11:33:44.576Z,-1.15
2023-01-28T11:36:19.367Z,-1.03
2023-01-28T11:39:05.534Z,-1.07
2023-01-28T11:41:34.853Z,-0.98
2023-01-28T11:44:19.490Z,-0.97
2023-01-28T11:47:15.018Z,-1.04
2023-01-28T11:50:04.193Z,-1.06
2023-01-28T11:52:48.601Z,-1.07
2023-01-28T11:55:23.695Z,-1.05
2023-01-28T11:58:06.850Z,-0.95
2023-01-28T12:00:48.620Z,-0.90
2023-01-28T12:03:38.516Z,-0.83
2023-01-28T12:06:33.307Z,-0.90
2023-01-28T12:09:17.816Z,-0.91
2023-01-28T12:12:15.083Z,-0.86
2023-01-28T12:15:12.251Z,-0.80
2023-01-28T12:17:45.547Z,-0.88
2023-01-28T12:20:19.013Z,-0.90
2023-01-28T12:23:01.217Z,-0.80
2023-01-28T12:25:42.693Z,-0.90
2023-01-28T12:28:30.739Z,-0.87
2023-01-28T12:31:13.278Z,-0.89
2023-01-28T12:34:07.846Z,-0.85
2023-01-28T12:37:09.726Z,-0.79
2023-01-28T12:39:51.693Z,-0.82
2023-01-28T12:42:48.844Z,-0.77
2023-01-28T12:45:23.480Z,-0.85
2023-01-28T12:47:56.129Z,-0.76
2023-01-28T12:50:32.210Z,-0.86
2023-01-28T12:53:20.197Z,-0.83
2023-01-28T12:55:51.775Z,-0.87
2023-01-28T12:58:28.976Z,-0.85
2023-01-28T13:01:00.034Z,-0.80
2023-01-28T13:03:57.125Z,-0.79
2023-01-28T13:06:39.086Z,-0.81
2023-01-28T13:09:17.773Z,-0.81
2023-01-28T13:11:46.791Z,-0.72
2023-01-28T13:14:15.063Z,-0.76
2023-01-28T13:16:41.768Z,-0.78
2023-01-28T13:19:23.031Z,-0.76
2023-01-28T13:21:50.132Z,-0.72
2023-01-28T13:24:16.715Z,-0.79
2023-01-28T13:26:56.158Z,-0.81
2023-01-28T13:29:34.300Z,-0.71
2023-01-28T13:32:04.041Z,-0.70
2023-01-28T13:34:45.907Z,-0.71
2023-01-28T13:37:43.860Z,-0.71
2023-01-28T13:40:29.679Z,-0.71
2023-01-28T13:43:13.295Z,-0.57
2023-01-28T13:45:39.964Z,-0.53
2023-01-28T13:48:21.795Z,-0.60
2023-01-28T13:50:54.096Z,-0.50
2023-01-28T13:53:22.894Z,-0.58
2023-01-28T13:55:55.471Z,-0.65
2023-01-28T13:58:52.536Z,-0.65
2023-01-28T14:01:19.144Z,-0.67
2023-01-28T14:04:20.866Z,-0.61
2023-01-28T14:06:47.413Z,-0.64
2023-01-28T14:09:46.320Z,-0.67
2023-01-28T14:12:38.652Z,-0.65
2023-01-28T14:15:40.546Z,-0.67
2023-01-28T14:18:22.180Z,-0.65
2023-01-28T14:20:49.781Z,-0.62
2023-01-28T14:23:19.302Z,-0.65
2023-01-28T14:26:15.091Z,-0.66
2023-01-28T14:29:12.179Z,-0.69
2023-01-28T14:31:39.799Z,-0.71
2023-01-28T14:34:24.814Z,-0.80
2023-01-28T14:36:56.185Z,-0.63
2023-01-28T14:39:32.820Z,-0.65
2023-01-28T14:42:02.473Z,-0.58
2023-01-28T14:44:45.118Z,-0.63
2023-01-28T14:47:35.675Z,-0.64
2023-01-28T14:50:18.602Z,-0.58
2023-01-28T14:53:01.644Z,-0.62
2023-01-28T14:55:48.373Z,-0.67
2023-01-28T14:58:23.150Z,-0.70
2023-01-28T15:00:55.883Z,-0.67
2023-01-28T15:03:25.251Z,-0.59
2023-01-28T15:06:16.711Z,-0.58
2023-01-28T15:08:43.396Z,-0.61
2023-01-28T15:11:16.440Z,-0.60
2023-01-28T15:13:47.731Z,-0.64
2023-01-28T15:16:22.237Z,-0.65
2023-01-28T15:18:50.960Z,-0.70
2023-01-28T15:21:21.446Z,-0.57
2023-01-28T15:23:53.694Z,-0.61
2023-01-28T15:26:25.270Z,-0.56
2023-01-28T15:28:53.171Z,-0.64
2023-01-28T15:31:23.671Z,-0.53
2023-01-28T15:34:14.133Z,-0.49
2023-01-28T15:36:41.429Z,-0.62
2023-01-28T15:39:18.668Z,-0.52
2023-01-28T15:41:50.431Z,-0.54
2023-01-28T15:44:21.045Z,-0.47
2023-01-28T15:46:47.699Z,-0.45
2023-01-28T15:49:16.788Z,-0.47
2023-01-28T15:51:51.107Z,-0.39
2023-01-28T15:54:18.189Z,-0.45
2023-01-28T15:56:44.876Z,-0.46
2023-01-28T15:59:21.564Z,-0.47
2023-01-28T16:01:48.532Z,-0.40
2023-01-28T16:04:30.379Z,-0.44
2023-01-28T16:06:58.988Z,-0.52
2023-01-28T16:09:31.596Z,-0.49
2023-01-28T16:12:13.985Z,-0.47
2023-01-28T16:14:45.371Z,-0.57
2023-01-28T16:17:17.637Z,-0.65
2023-01-28T16:19:48.685Z,-0.52
2023-01-28T16:22:22.672Z,-0.62
2023-01-28T16:24:52.982Z,-0.62
2023-01-28T16:27:23.217Z,-0.52
2023-01-28T16:29:49.821Z,-0.62
2023-01-28T16:32:37.237Z,-0.68
2023-01-28T16:35:12.096Z,-0.62
2023-01-28T16:37:40.641Z,-0.56
2023-01-28T16:40:10.010Z,-0.50
2023-01-28T16:42:36.614Z,-0.56
2023-01-28T16:45:04.022Z,-0.56
2023-01-28T16:47:30.607Z,-0.58
2023-01-28T16:49:57.221Z,-0.42
2023-01-28T16:52:23.847Z,-0.48
2023-01-28T16:54:53.701Z,-0.56
2023-01-28T16:57:24.390Z,-0.61
2023-01-28T16:59:51.352Z,-0.62
2023-01-28T17:02:18.021Z,-0.62
2023-01-28T17:04:44.612Z,-0.59
2023-01-28T17:07:11.280Z,-0.54
2023-01-28T17:09:37.916Z,-0.55
2023-01-28T17:12:04.797Z,-0.60
2023-01-28T17:14:31.380Z,-0.59
2023-01-28T17:16:57.946Z,-0.58
2023-01-28T17:19:24.718Z,-0.62
2023-01-28T17:21:51.310Z,-0.64
2023-01-28T17:24:18.009Z,-0.62
2023-01-28T17:26:44.753Z,-0.63
2023-01-28T17:29:11.394Z,-0.64
2023-01-28T17:31:38.074Z,-0.63
2023-01-28T17:34:07.102Z,-0.60
2023-01-28T17:36:33.772Z,-0.59
2023-01-28T17:39:00.388Z,-0.60
2023-01-28T17:41:27.039Z,-0.59
2023-01-28T17:43:54.991Z,-0.63
2023-01-28T17:46:23.161Z,-0.55
2023-01-28T17:48:49.994Z,-0.57
2023-01-28T17:51:18.750Z,-0.57
2023-01-28T17:53:48.293Z,-0.55
2023-01-28T17:56:53.069Z,-0.52
2023-01-28T17:59:24.177Z,-0.55
2023-01-28T18:01:55.243Z,-0.56
2023-01-28T18:04:23.157Z,-0.56
2023-01-28T18:06:51.987Z,-0.54
2023-01-28T18:09:20.440Z,-0.54
2023-01-28T18:11:48.306Z,-0.55
2023-01-28T18:14:15.880Z,-0.57
2023-01-28T18:16:43.302Z,-0.53
2023-01-28T18:19:11.312Z,-0.55
2023-01-28T18:21:57.152Z,-0.55
2023-01-28T18:24:29.516Z,-0.51
2023-01-28T18:27:00.132Z,-0.52
2023-01-28T18:29:30.061Z,-0.47
2023-01-28T18:32:00.089Z,-0.48
2023-01-28T18:34:31.024Z,-0.51
2023-01-28T18:36:59.312Z,-0.37
2023-01-28T18:39:30.751Z,-0.40
2023-01-28T18:41:59.780Z,-0.39
2023-01-28T18:44:30.449Z,-0.32
2023-01-28T18:46:57.780Z,-0.41
2023-01-28T18:49:25.622Z,-0.36
2023-01-28T18:51:53.124Z,-0.44
2023-01-28T18:54:23.579Z,-0.42
2023-01-28T18:56:51.085Z,-0.46
2023-01-28T18:59:18.585Z,-0.46
2023-01-28T19:01:48.156Z,-0.49
2023-01-28T19:04:16.072Z,-0.50
2023-01-28T19:06:43.818Z,-0.50
2023-01-28T19:09:13.481Z,-0.48
2023-01-28T19:11:41.779Z,-0.48
2023-01-28T19:14:10.754Z,-0.49
2023-01-28T19:16:39.146Z,-0.47
2023-01-28T19:19:07.175Z,-0.44
2023-01-28T19:21:35.333Z,-0.43
2023-01-28T19:24:07.581Z,-0.43
2023-01-28T19:26:36.560Z,-0.43
2023-01-28T19:29:08.174Z,-0.44
2023-01-28T19:31:38.231Z,-0.46
2023-01-28T19:34:06.919Z,-0.44
2023-01-28T19:36:34.868Z,-0.41
2023-01-28T19:39:06.299Z,-0.41
2023-01-28T19:41:34.466Z,-0.45
2023-01-28T19:44:02.291Z,-0.43
2023-01-28T19:46:30.350Z,-0.47
2023-01-28T19:48:59.131Z,-0.44
2023-01-28T19:51:26.744Z,-0.40
2023-01-28T19:53:55.314Z,-0.43
2023-01-28T19:56:24.812Z,-0.45
2023-01-28T19:58:54.484Z,-0.46
2023-01-28T20:01:24.234Z,-0.43
2023-01-28T20:03:55.637Z,-0.42
2023-01-28T20:06:24.171Z,-0.43
2023-01-28T20:08:54.314Z,-0.44
2023-01-28T20:11:22.422Z,-0.42
2023-01-28T20:13:52.219Z,-0.43
2023-01-28T20:16:23.526Z,-0.40
2023-01-28T20:18:53.879Z,-0.37
2023-01-28T20:21:22.340Z,-0.41
2023-01-28T20:23:52.333Z,-0.38
2023-01-28T20:26:22.580Z,-0.41
2023-01-28T20:28:50.930Z,-0.37
2023-01-28T20:31:19.711Z,-0.39
2023-01-28T20:33:47.378Z,-0.36
2023-01-28T20:36:15.427Z,-0.39
2023-01-28T20:38:45.765Z,-0.37
2023-01-28T20:41:17.712Z,-0.37
2023-01-28T20:43:45.924Z,-0.40
2023-01-28T20:46:17.719Z,-0.39
2023-01-28T20:48:45.689Z,-0.38
2023-01-28T20:51:16.361Z,-0.42
2023-01-28T20:53:45.005Z,-0.43
2023-01-28T20:56:19.490Z,-0.41
2023-01-28T20:58:49.442Z,-0.44
2023-01-28T21:01:20.557Z,-0.44
2023-01-28T21:03:48.373Z,-0.45
2023-01-28T21:06:16.103Z,-0.46
2023-01-28T21:08:44.118Z,-0.46
2023-01-28T21:11:12.703Z,-0.45
2023-01-28T21:13:40.626Z,-0.41
2023-01-28T21:16:08.531Z,-0.41
2023-01-28T21:18:36.127Z,-0.41
2023-01-28T21:21:05.776Z,-0.43
2023-01-28T21:23:33.668Z,-0.41
2023-01-28T21:26:03.773Z,-0.40
2023-01-28T21:28:31.513Z,-0.42
2023-01-28T21:31:08.430Z,-0.42
2023-01-28T21:33:37.020Z,-0.42
2023-01-28T21:36:14.550Z,-0.41
2023-01-28T21:38:42.645Z,-0.40
2023-01-28T21:41:11.267Z,-0.39
2023-01-28T21:43:39.916Z,-0.40
2023-01-28T21:46:07.669Z,-0.41
2023-01-28T21:48:35.513Z,-0.43
2023-01-28T21:51:21.716Z,-0.49
2023-01-28T21:53:48.818Z,-0.45
2023-01-28T21:56:16.055Z,-0.49
2023-01-28T21:58:58.839Z,-0.49
2023-01-28T22:01:26.615Z,-0.46
2023-01-28T22:03:54.187Z,-0.42
2023-01-28T22:06:21.758Z,-0.43
2023-01-28T22:08:49.131Z,-0.41
2023-01-28T22:11:16.644Z,-0.39
2023-01-28T22:13:43.804Z,-0.40
2023-01-28T22:16:11.769Z,-0.38
2023-01-28T22:18:39.038Z,-0.38
2023-01-28T22:21:09.384Z,-0.40
2023-01-28T22:23:37.225Z,-0.39
2023-01-28T22:26:06.236Z,-0.39
2023-01-28T22:28:33.725Z,-0.38
2023-01-28T22:31:12.462Z,-0.40
2023-01-28T22:33:40.121Z,-0.38
2023-01-28T22:36:12.370Z,-0.38
2023-01-28T22:38:40.010Z,-0.41
2023-01-28T22:41:11.397Z,-0.40
2023-01-28T22:43:40.729Z,-0.39
2023-01-28T22:46:09.986Z,-0.42
2023-01-28T22:48:39.001Z,-0.39
2023-01-28T22:51:14.262Z,-0.42
2023-01-28T22:53:42.286Z,-0.39
2023-01-28T22:56:09.891Z,-0.40
2023-01-28T22:58:37.700Z,-0.38
2023-01-28T23:01:06.966Z,-0.38
2023-01-28T23:03:35.526Z,-0.37
2023-01-28T23:06:05.152Z,-0.37
2023-01-28T23:08:33.763Z,-0.43
2023-01-28T23:11:02.824Z,-0.47
2023-01-28T23:13:51.567Z,-0.44
2023-01-28T23:16:34.804Z,-0.41
2023-01-28T23:19:20.775Z,-0.40
2023-01-28T23:22:04.245Z,-0.41
2023-01-28T23:24:33.882Z,-0.44
2023-01-28T23:27:03.210Z,-0.47
2023-01-28T23:29:32.546Z,-0.45
2023-01-28T23:32:06.824Z,-0.45
2023-01-28T23:34:37.501Z,-0.48
2023-01-28T23:37:07.803Z,-0.44
2023-01-28T23:39:37.114Z,-0.44
2023-01-28T23:42:17.383Z,-0.42
2023-01-28T23:44:45.856Z,-0.44
2023-01-28T23:47:13.580Z,-0.47
2023-01-28T23:49:41.593Z,-0.48
2023-01-28T23:52:10.369Z,-0.47
2023-01-28T23:54:38.370Z,-0.49
2023-01-28T23:57:06.358Z,-0.49
2023-01-28T23:59:33.576Z,-0.51
